Aviation Digital Data Service (ADDS)

Output produced by METARs form (1819 UTC 24 June 2018)
found at http://aviationweather.gov/adds/metars/
 
KDTW 241731Z 2418/2524 01007KT P6SM VCSH BKN025 OVC035 
     FM242100 02008KT P6SM BKN035 BKN060 
     FM250100 03005KT P6SM FEW120 SCT250 
     FM251500 05010KT P6SM SCT030